Greenbush, MN (56726)

4:08 PM CDT on April 24, 2017 (GMT -0500)
Roseau Municipal-Billberg | | Change Station

Elev 1056 ft 48.86 °N, 95.70 °W | Updated 14 minutes ago

Snow
Snow
34 °F
Feels Like 24 °F
N
14
Wind Variable Wind from NE

Today
High -- | Low -- °F
--% Chance of Precip.
Yesterday
High -- | Low -- °F
Precip. -- in
Pressure 29.67 in
Visibility 2.0 miles
Clouds Mostly Cloudy 800 ft
Overcast 1300 ft
Windchill 24 °F
Dew Point 28 °F
Humidity 81%
Rainfall 0.04 in
Snow Depth Not available.
6:16 AM 8:30 PM
Waning Crescent, 4% visible
METAR KROX 242054Z AUTO 05012KT 2SM -SN BKN008 OVC013 01/M02 A2967 RMK AO2 P0001
Pressure 29.67 in
Visibility 2.0 miles
Clouds Mostly Cloudy 800 ft
Overcast 1300 ft
Windchill 24 °F
Dew Point 28 °F
Humidity 81%
Rainfall 0.04 in
Snow Depth Not available.
6:16 AM 8:30 PM
Waning Crescent, 4% visible
METAR KROX 242054Z AUTO 05012KT 2SM -SN BKN008 OVC013 01/M02 A2967 RMK AO2 P0001

Get Severe Weather Alerts

Thanks for signing up!

Be on the lookout for a verification email in your inbox.

You'll start receiving the daily forecast at 8 AM.

×

10-Day Weather Forecast

Almanac

Astronomy

Apr. 24, 2017 Rise Set
Actual Time
Civil Twilight
Nautical Twilight
Astronomical Twilight
Moon
Length of Visible Light
Length of Day
Tomorrow will be .
, % of the Moon is Illuminated

Today's Extremes

State Highs State Lows

Community

WunderPhotos

WunderBlog® & News

Nearby

Air Quality

  Air Quality AQ Index Pollutant
Not available.

Snow Depth

Station Depth Elevation

Earthquake Activity

City Distance Mag. Time & Date
Minimum magnitude displayed is 2.5.

Coastal Water Temperatures

Place Temperature

Stations

Nearby Weather Stations

Station Location Temp. Windchill Dew Point Humidity Wind Precip. Elev Updated Type
                   

Watches & Warnings

There are currently no watches in effect.